createdAt,value
2022-09-25T00:02:28.924Z,17.17
2022-09-25T00:04:58.781Z,16.27
2022-09-25T00:07:28.302Z,16.07
2022-09-25T00:09:57.857Z,16.63
2022-09-25T00:12:28.019Z,18.53
2022-09-25T00:15:02.300Z,16.63
2022-09-25T00:17:33.100Z,17.63
2022-09-25T00:20:01.258Z,20.20
2022-09-25T00:22:35.300Z,21.10
2022-09-25T00:25:04.890Z,19.87
2022-09-25T00:27:34.014Z,20.93
2022-09-25T00:30:04.555Z,21.03
2022-09-25T00:32:33.309Z,19.90
2022-09-25T00:35:03.240Z,18.17
2022-09-25T00:37:33.257Z,20.40
2022-09-25T00:40:07.138Z,19.20
2022-09-25T00:42:36.525Z,22.70
2022-09-25T00:45:16.554Z,20.00
2022-09-25T00:48:03.727Z,24.80
2022-09-25T00:50:31.603Z,20.87
2022-09-25T00:53:12.001Z,19.10
2022-09-25T00:55:42.811Z,19.67
2022-09-25T00:58:14.569Z,21.17
2022-09-25T01:00:41.009Z,20.67
2022-09-25T01:03:15.955Z,20.83
2022-09-25T01:05:46.831Z,19.40
2022-09-25T01:08:16.529Z,18.60
2022-09-25T01:10:42.855Z,23.63
2022-09-25T01:13:13.231Z,23.30
2022-09-25T01:15:56.733Z,23.57
2022-09-25T01:18:31.773Z,30.80
2022-09-25T01:21:37.819Z,27.03
2022-09-25T01:24:32.746Z,23.90
2022-09-25T01:27:02.681Z,25.90
2022-09-25T01:29:55.354Z,24.10
2022-09-25T01:32:33.920Z,23.00
2022-09-25T01:35:12.260Z,25.47
2022-09-25T01:37:43.813Z,27.70
2022-09-25T01:40:17.850Z,26.23
2022-09-25T01:43:05.558Z,25.20
2022-09-25T01:45:40.505Z,27.80
2022-09-25T01:48:08.896Z,27.57
2022-09-25T01:50:46.300Z,28.40
2022-09-25T01:53:22.108Z,32.10
2022-09-25T01:55:52.301Z,27.73
2022-09-25T01:58:30.024Z,24.07
2022-09-25T02:01:12.417Z,26.80
2022-09-25T02:03:46.706Z,26.10
2022-09-25T02:06:19.268Z,22.97
2022-09-25T02:08:53.240Z,28.40
2022-09-25T02:11:29.586Z,27.00
2022-09-25T02:14:04.728Z,25.47
2022-09-25T02:16:37.422Z,23.23
2022-09-25T02:19:26.439Z,26.57
2022-09-25T02:22:04.359Z,25.00
2022-09-25T02:24:58.452Z,32.10
2022-09-25T02:27:26.861Z,28.00
2022-09-25T02:29:54.580Z,27.13
2022-09-25T02:32:39.151Z,30.90
2022-09-25T02:35:05.594Z,25.70
2022-09-25T02:37:32.074Z,31.93
2022-09-25T02:40:03.657Z,32.30
2022-09-25T02:42:38.951Z,30.70
2022-09-25T02:45:28.276Z,26.13
2022-09-25T02:48:20.200Z,26.97
2022-09-25T02:51:08.641Z,25.77
2022-09-25T02:53:46.592Z,24.60
2022-09-25T02:56:39.315Z,30.03
2022-09-25T02:59:23.935Z,27.10
2022-09-25T03:01:58.712Z,26.40
2022-09-25T03:04:29.056Z,28.23
2022-09-25T03:06:59.115Z,25.97
2022-09-25T03:09:33.034Z,27.70
2022-09-25T03:12:06.777Z,26.27
2022-09-25T03:14:36.727Z,29.53
2022-09-25T03:17:07.438Z,31.37
2022-09-25T03:19:35.934Z,28.33
2022-09-25T03:22:06.185Z,28.47
2022-09-25T03:24:36.341Z,29.37
2022-09-25T03:27:05.216Z,30.43
2022-09-25T03:29:35.258Z,31.07
2022-09-25T03:32:04.523Z,28.47
2022-09-25T03:34:33.919Z,28.23
2022-09-25T03:37:07.375Z,26.13
2022-09-25T03:39:37.041Z,29.23
2022-09-25T03:42:06.782Z,30.57
2022-09-25T03:44:36.624Z,30.23
2022-09-25T03:47:06.465Z,30.70
2022-09-25T03:49:36.121Z,30.77
2022-09-25T03:52:05.394Z,30.90
2022-09-25T03:54:35.244Z,27.13
2022-09-25T03:57:05.590Z,29.03
2022-09-25T03:59:35.428Z,27.17
2022-09-25T04:02:05.234Z,32.97
2022-09-25T04:04:37.381Z,26.63
2022-09-25T04:07:07.947Z,26.17
2022-09-25T04:09:36.096Z,27.70
2022-09-25T04:12:06.698Z,26.80
2022-09-25T04:14:36.211Z,33.00
2022-09-25T04:17:05.527Z,25.30
2022-09-25T04:19:34.968Z,33.63
2022-09-25T04:22:06.706Z,25.00
2022-09-25T04:24:48.958Z,24.60
2022-09-25T04:27:19.717Z,26.60
2022-09-25T04:29:46.102Z,29.07
2022-09-25T04:32:32.664Z,32.00
2022-09-25T04:34:59.151Z,32.80
2022-09-25T04:37:25.623Z,27.17
2022-09-25T04:39:56.694Z,23.80
2022-09-25T04:42:23.971Z,25.87
2022-09-25T04:44:54.423Z,29.17
2022-09-25T04:47:25.471Z,21.80
2022-09-25T04:49:55.433Z,25.73
2022-09-25T04:52:21.617Z,26.47
2022-09-25T04:54:47.778Z,26.57
2022-09-25T04:57:38.773Z,23.37
2022-09-25T05:00:06.580Z,25.63
2022-09-25T05:02:32.909Z,24.40
2022-09-25T05:05:07.283Z,21.97
2022-09-25T05:07:38.085Z,26.63
2022-09-25T05:10:08.087Z,25.13
2022-09-25T05:12:35.448Z,25.60
2022-09-25T05:15:05.969Z,24.20
2022-09-25T05:17:32.831Z,23.57
2022-09-25T05:19:59.021Z,21.80
2022-09-25T05:22:25.216Z,28.20
2022-09-25T05:24:59.054Z,24.40
2022-09-25T05:27:25.466Z,21.53
2022-09-25T05:29:51.745Z,27.87
2022-09-25T05:32:18.266Z,24.10
2022-09-25T05:34:47.969Z,21.87
2022-09-25T05:37:14.113Z,24.40
2022-09-25T05:39:41.768Z,23.70
2022-09-25T05:42:11.565Z,21.70
2022-09-25T05:44:41.580Z,22.67
2022-09-25T05:47:10.363Z,19.87
2022-09-25T05:49:39.822Z,22.43
2022-09-25T05:52:09.598Z,18.23
2022-09-25T05:54:39.057Z,18.20
2022-09-25T05:57:09.028Z,23.17
2022-09-25T05:59:38.699Z,21.27
2022-09-25T06:02:12.353Z,18.00
2022-09-25T06:04:41.446Z,19.20
2022-09-25T06:07:11.019Z,23.30
2022-09-25T06:09:40.708Z,18.63
2022-09-25T06:12:10.623Z,16.60
2022-09-25T06:14:52.107Z,16.93
2022-09-25T06:17:22.423Z,21.30
2022-09-25T06:19:51.449Z,17.70
2022-09-25T06:22:21.191Z,17.57
2022-09-25T06:24:50.731Z,15.27
2022-09-25T06:27:20.873Z,19.13
2022-09-25T06:29:50.063Z,16.30
2022-09-25T06:32:22.584Z,20.10
2022-09-25T06:34:49.590Z,16.70
2022-09-25T06:37:22.648Z,15.80
2022-09-25T06:39:52.002Z,12.90
2022-09-25T06:42:22.413Z,22.67
2022-09-25T06:44:52.061Z,13.23
2022-09-25T06:47:26.631Z,17.63
2022-09-25T06:49:52.996Z,15.43
2022-09-25T06:52:21.814Z,13.10
2022-09-25T06:54:53.585Z,10.73
2022-09-25T06:57:23.385Z,11.47
2022-09-25T06:59:52.488Z,15.50
2022-09-25T07:02:40.316Z,11.53
2022-09-25T07:05:07.069Z,13.10
2022-09-25T07:07:33.269Z,13.50
2022-09-25T07:10:00.523Z,13.37
2022-09-25T07:12:33.946Z,12.37
2022-09-25T07:14:59.975Z,14.63
2022-09-25T07:17:26.096Z,9.23
2022-09-25T07:19:52.268Z,16.47
2022-09-25T07:22:28.806Z,10.33
2022-09-25T07:24:55.537Z,12.30
2022-09-25T07:27:25.007Z,8.83
2022-09-25T07:29:54.543Z,12.00
2022-09-25T07:32:23.919Z,21.73
2022-09-25T07:34:53.287Z,15.60
2022-09-25T07:37:22.895Z,11.93
2022-09-25T07:39:52.368Z,17.93
2022-09-25T07:42:22.420Z,8.27
2022-09-25T07:44:52.137Z,11.43
2022-09-25T07:47:21.766Z,13.63
2022-09-25T07:49:54.571Z,12.40
2022-09-25T07:52:24.495Z,11.53
2022-09-25T07:54:53.611Z,8.17
2022-09-25T07:57:23.465Z,10.43
2022-09-25T07:59:52.991Z,14.00
2022-09-25T08:02:23.878Z,10.77
2022-09-25T08:04:53.868Z,11.90
2022-09-25T08:07:27.286Z,8.30
2022-09-25T08:09:55.795Z,10.30
2022-09-25T08:12:25.226Z,15.47
2022-09-25T08:14:54.746Z,11.47
2022-09-25T08:17:24.189Z,18.80
2022-09-25T08:19:53.604Z,11.13
2022-09-25T08:22:24.051Z,12.90
2022-09-25T08:24:53.415Z,12.80
2022-09-25T08:27:23.163Z,10.33
2022-09-25T08:29:52.774Z,11.17
2022-09-25T08:32:23.283Z,16.00
2022-09-25T08:34:55.696Z,6.60
2022-09-25T08:37:25.401Z,15.43
2022-09-25T08:39:55.319Z,9.40
2022-09-25T08:42:29.899Z,9.57
2022-09-25T08:45:21.496Z,11.13
2022-09-25T08:48:09.615Z,10.93
2022-09-25T08:50:40.435Z,11.73
2022-09-25T08:56:14.764Z,11.97
2022-09-25T08:58:50.926Z,8.90
2022-09-25T09:01:27.705Z,7.13
2022-09-25T09:04:14.662Z,8.60
2022-09-25T09:07:24.728Z,13.43
2022-09-25T09:09:49.311Z,8.03
2022-09-25T09:12:30.623Z,7.43
2022-09-25T09:15:25.341Z,8.70
2022-09-25T09:17:56.219Z,10.27
2022-09-25T09:20:50.879Z,12.10
2022-09-25T09:23:33.005Z,11.00
2022-09-25T09:26:05.188Z,7.63
2022-09-25T09:28:59.491Z,7.70
2022-09-25T09:31:43.973Z,7.87
2022-09-25T09:35:04.588Z,12.83
2022-09-25T09:38:00.458Z,10.27
2022-09-25T09:40:54.834Z,10.63
2022-09-25T09:43:37.903Z,8.50
2022-09-25T09:46:25.995Z,11.90
2022-09-25T09:49:08.844Z,7.90
2022-09-25T09:51:49.108Z,5.90
2022-09-25T09:54:24.413Z,5.20
2022-09-25T09:56:56.047Z,5.63
2022-09-25T09:59:30.771Z,9.13
2022-09-25T10:02:26.612Z,4.53
2022-09-25T10:04:54.352Z,10.53
2022-09-25T10:07:26.327Z,4.40
2022-09-25T10:09:53.918Z,5.90
2022-09-25T10:12:29.375Z,7.43
2022-09-25T10:15:11.989Z,6.83
2022-09-25T10:17:42.479Z,8.13
2022-09-25T10:20:20.040Z,6.47
2022-09-25T10:22:53.178Z,14.50
2022-09-25T10:25:39.689Z,8.80
2022-09-25T10:28:31.719Z,6.90
2022-09-25T10:31:02.407Z,6.87
2022-09-25T10:33:32.690Z,8.60
2022-09-25T10:36:02.992Z,10.67
2022-09-25T10:38:37.680Z,10.23
2022-09-25T10:41:16.438Z,11.97
2022-09-25T10:43:57.578Z,7.20
2022-09-25T10:46:54.180Z,10.30
2022-09-25T10:49:44.456Z,6.40
2022-09-25T10:52:13.180Z,13.00
2022-09-25T10:54:45.493Z,10.30
2022-09-25T10:57:17.877Z,10.03
2022-09-25T10:59:49.718Z,7.03
2022-09-25T11:02:35.145Z,9.93
2022-09-25T11:05:02.944Z,6.80
2022-09-25T11:07:29.475Z,10.47
2022-09-25T11:10:05.547Z,9.73
2022-09-25T11:12:35.719Z,4.80
2022-09-25T11:15:05.114Z,7.97
2022-09-25T11:17:42.284Z,6.10
2022-09-25T11:20:15.601Z,7.50
2022-09-25T11:22:55.574Z,4.83
2022-09-25T11:25:39.662Z,6.40
2022-09-25T11:28:27.312Z,4.37
2022-09-25T11:31:01.459Z,8.10
2022-09-25T11:33:49.145Z,7.83
2022-09-25T11:36:32.227Z,7.60
2022-09-25T11:39:28.906Z,7.73
2022-09-25T11:42:27.866Z,5.77
2022-09-25T11:45:01.913Z,10.27
2022-09-25T11:47:56.977Z,5.73
2022-09-25T11:50:39.303Z,8.10
2022-09-25T11:53:48.131Z,6.67
2022-09-25T11:56:42.324Z,3.10
2022-09-25T11:59:39.707Z,6.37
2022-09-25T12:02:30.565Z,5.77
2022-09-25T12:05:24.684Z,5.80
2022-09-25T12:08:13.059Z,5.63
2022-09-25T12:10:49.175Z,4.23
2022-09-25T12:13:40.364Z,5.00
2022-09-25T12:16:35.406Z,8.17
2022-09-25T12:19:18.458Z,11.80
2022-09-25T12:22:00.549Z,3.60
2022-09-25T12:24:59.992Z,4.47
2022-09-25T12:27:36.780Z,3.80
2022-09-25T12:30:23.334Z,5.60
2022-09-25T12:33:21.364Z,4.83
2022-09-25T12:36:14.138Z,7.67
2022-09-25T12:38:55.442Z,2.80
2022-09-25T12:41:48.595Z,4.30
2022-09-25T12:44:33.415Z,3.87
2022-09-25T12:47:08.996Z,3.37
2022-09-25T12:49:39.687Z,1.70
2022-09-25T12:52:12.383Z,6.43
2022-09-25T12:54:53.660Z,4.83
2022-09-25T12:57:32.347Z,9.43
2022-09-25T13:00:19.229Z,5.80
2022-09-25T13:02:57.864Z,5.03
2022-09-25T13:05:51.890Z,2.43
2022-09-25T13:08:26.993Z,7.40
2022-09-25T13:11:06.348Z,3.00
2022-09-25T13:13:42.619Z,2.90
2022-09-25T13:16:15.335Z,4.50
2022-09-25T13:19:10.471Z,4.97
2022-09-25T13:21:43.776Z,3.80
2022-09-25T13:24:16.954Z,4.00
2022-09-25T13:26:46.364Z,5.97
2022-09-25T13:29:28.971Z,4.70
2022-09-25T13:32:07.149Z,3.73
2022-09-25T13:34:39.389Z,2.27
2022-09-25T13:37:08.208Z,2.97
2022-09-25T13:39:59.532Z,3.10
2022-09-25T13:42:38.183Z,3.40
2022-09-25T13:45:17.121Z,1.97
2022-09-25T13:48:08.054Z,2.27
2022-09-25T13:50:45.954Z,1.93
2022-09-25T13:53:22.169Z,1.93
2022-09-25T13:55:55.004Z,2.73
2022-09-25T13:58:33.775Z,1.97
2022-09-25T14:01:11.042Z,1.97
2022-09-25T14:03:49.539Z,5.60
2022-09-25T14:06:34.426Z,3.60
2022-09-25T14:09:08.653Z,4.90
2022-09-25T14:11:40.633Z,4.03
2022-09-25T14:14:09.465Z,2.40
2022-09-25T14:16:51.306Z,2.60
2022-09-25T14:19:26.629Z,6.33
2022-09-25T14:21:54.155Z,6.00
2022-09-25T14:24:28.383Z,2.23
2022-09-25T14:27:03.283Z,4.23
2022-09-25T14:29:38.678Z,1.67
2022-09-25T14:35:54.292Z,8.30
2022-09-25T14:38:50.036Z,3.80
2022-09-25T14:41:25.362Z,1.73
2022-09-25T14:44:15.856Z,2.53
2022-09-25T14:46:48.333Z,2.57
2022-09-25T14:49:29.538Z,2.40
2022-09-25T14:52:02.761Z,3.60
2022-09-25T14:54:35.860Z,2.63
2022-09-25T14:57:07.425Z,1.33
2022-09-25T14:59:41.581Z,59.23
2022-09-25T15:02:22.045Z,4.70
2022-09-25T15:04:57.063Z,2.60
2022-09-25T15:07:31.362Z,3.30
2022-09-25T15:10:01.301Z,7.80
2022-09-25T15:12:35.360Z,2.13
2022-09-25T15:15:12.380Z,3.53
2022-09-25T15:18:01.872Z,4.03
2022-09-25T15:20:32.877Z,2.23
2022-09-25T15:23:09.649Z,4.07
2022-09-25T15:25:42.712Z,6.80
2022-09-25T15:28:39.050Z,1.90
2022-09-25T15:31:08.827Z,1.60
2022-09-25T15:33:40.134Z,2.23
2022-09-25T15:36:19.469Z,4.37
2022-09-25T15:38:52.251Z,4.23
2022-09-25T15:41:19.150Z,5.20
2022-09-25T15:44:10.803Z,5.43
2022-09-25T15:46:38.875Z,2.80
2022-09-25T15:49:05.535Z,3.30
2022-09-25T15:51:35.708Z,1.77
2022-09-25T15:54:33.568Z,2.03
2022-09-25T15:57:12.555Z,2.50
2022-09-25T16:00:04.361Z,1.90
2022-09-25T16:03:06.714Z,2.70
2022-09-25T16:05:37.565Z,1.60
2022-09-25T16:08:29.380Z,1.80
2022-09-25T16:11:13.199Z,3.20
2022-09-25T16:13:42.897Z,3.07
2022-09-25T16:16:28.683Z,2.80
2022-09-25T16:18:56.623Z,2.00
2022-09-25T16:21:32.308Z,3.67
2022-09-25T16:24:06.583Z,1.30
2022-09-25T16:26:38.178Z,1.40
2022-09-25T16:29:11.328Z,3.00
2022-09-25T16:31:42.771Z,3.97
2022-09-25T16:34:25.454Z,2.00
2022-09-25T16:36:58.681Z,2.67
2022-09-25T16:39:30.588Z,2.13
2022-09-25T16:41:59.200Z,3.83
2022-09-25T16:44:29.331Z,5.40
2022-09-25T16:46:59.545Z,3.07
2022-09-25T16:49:32.306Z,3.17
2022-09-25T16:52:07.664Z,3.10
2022-09-25T16:54:37.871Z,8.83
2022-09-25T16:57:09.114Z,15.83
2022-09-25T16:59:36.114Z,16.63
2022-09-25T17:02:18.845Z,21.93
2022-09-25T17:04:50.021Z,20.60
2022-09-25T17:07:24.315Z,9.47
2022-09-25T17:09:54.946Z,7.83
2022-09-25T17:12:25.407Z,9.07
2022-09-25T17:14:55.887Z,4.73
2022-09-25T17:17:25.546Z,6.03
2022-09-25T17:19:55.539Z,4.70
2022-09-25T17:22:29.373Z,6.70
2022-09-25T17:25:41.031Z,10.07
2022-09-25T17:28:11.534Z,6.50
2022-09-25T17:30:42.552Z,4.80
2022-09-25T17:33:17.888Z,7.30
2022-09-25T17:35:58.279Z,5.30
2022-09-25T17:38:26.571Z,7.47
2022-09-25T17:40:56.389Z,6.07
2022-09-25T17:43:25.407Z,10.80
2022-09-25T17:45:59.832Z,9.63
2022-09-25T17:48:29.961Z,14.30
2022-09-25T17:51:03.266Z,8.57
2022-09-25T17:53:31.238Z,8.13
2022-09-25T17:55:59.272Z,8.23
2022-09-25T17:58:29.317Z,9.47
2022-09-25T18:01:00.439Z,8.77
2022-09-25T18:03:30.438Z,8.40
2022-09-25T18:05:58.309Z,5.47
2022-09-25T18:08:27.693Z,5.23
2022-09-25T18:10:58.189Z,5.20
2022-09-25T18:13:31.192Z,7.70
2022-09-25T18:16:01.193Z,9.00
2022-09-25T18:18:50.222Z,8.23
2022-09-25T18:21:38.170Z,5.70
2022-09-25T18:24:04.560Z,6.03
2022-09-25T18:26:31.525Z,3.63
2022-09-25T18:29:02.842Z,4.70
2022-09-25T18:31:33.030Z,3.40
2022-09-25T18:33:59.155Z,4.23
2022-09-25T18:36:25.543Z,5.30
2022-09-25T18:38:56.481Z,4.63
2022-09-25T18:41:22.866Z,6.37
2022-09-25T18:43:49.017Z,8.87
2022-09-25T18:46:15.498Z,6.47
2022-09-25T18:48:47.171Z,10.00
2022-09-25T18:51:14.280Z,9.50
2022-09-25T18:53:40.565Z,9.23
2022-09-25T18:56:07.520Z,6.10
2022-09-25T18:58:36.546Z,6.30
2022-09-25T19:01:05.567Z,9.90
2022-09-25T19:03:37.092Z,9.60
2022-09-25T19:06:06.283Z,13.43
2022-09-25T19:08:33.450Z,11.50
2022-09-25T19:11:11.569Z,14.27
2022-09-25T19:13:37.827Z,12.53
2022-09-25T19:16:10.296Z,5.90
2022-09-25T19:18:39.686Z,7.10
2022-09-25T19:21:15.619Z,6.40
2022-09-25T19:23:50.075Z,3.93
2022-09-25T19:26:21.529Z,5.23
2022-09-25T19:28:47.888Z,4.50
2022-09-25T19:31:20.017Z,3.00
2022-09-25T19:33:48.083Z,4.53
2022-09-25T19:36:20.321Z,5.70
2022-09-25T19:38:47.211Z,5.50
2022-09-25T19:41:26.907Z,5.37
2022-09-25T19:43:56.415Z,4.97
2022-09-25T19:46:23.279Z,5.50
2022-09-25T19:48:49.501Z,4.23
2022-09-25T19:51:21.881Z,3.73
2022-09-25T19:53:48.418Z,5.87
2022-09-25T19:56:15.486Z,4.23
2022-09-25T19:58:43.335Z,6.57
2022-09-25T20:01:16.040Z,6.40
2022-09-25T20:03:42.594Z,5.13
2022-09-25T20:06:12.275Z,7.60
2022-09-25T20:08:42.463Z,6.10
2022-09-25T20:11:23.746Z,5.70
2022-09-25T20:13:51.184Z,6.60
2022-09-25T20:16:24.318Z,9.93
2022-09-25T20:19:02.097Z,6.27
2022-09-25T20:21:33.751Z,6.13
2022-09-25T20:24:02.281Z,5.70
2022-09-25T20:26:32.598Z,9.00
2022-09-25T20:29:01.530Z,4.57
2022-09-25T20:31:29.445Z,3.50
2022-09-25T20:33:55.840Z,4.27
2022-09-25T20:36:25.237Z,5.57
2022-09-25T20:38:53.145Z,6.00
2022-09-25T20:41:20.464Z,2.90
2022-09-25T20:43:50.605Z,5.13
2022-09-25T20:46:19.630Z,4.53
2022-09-25T20:48:50.790Z,4.40
2022-09-25T20:51:20.774Z,3.80
2022-09-25T20:54:01.302Z,5.10
2022-09-25T20:56:29.042Z,4.23
2022-09-25T20:58:56.144Z,3.23
2022-09-25T21:01:24.962Z,8.23
2022-09-25T21:03:58.471Z,5.53
2022-09-25T21:06:27.407Z,2.80
2022-09-25T21:08:55.945Z,4.13
2022-09-25T21:11:25.075Z,3.00
2022-09-25T21:13:57.446Z,2.70
2022-09-25T21:16:24.639Z,2.60
2022-09-25T21:19:04.535Z,6.40
2022-09-25T21:21:33.613Z,4.50
2022-09-25T21:24:01.511Z,2.70
2022-09-25T21:26:29.361Z,4.40
2022-09-25T21:29:01.660Z,5.00
2022-09-25T21:31:34.732Z,3.37
2022-09-25T21:34:01.451Z,4.57
2022-09-25T21:36:29.115Z,9.87
2022-09-25T21:39:03.222Z,8.00
2022-09-25T21:41:32.161Z,3.53
2022-09-25T21:44:05.351Z,5.23
2022-09-25T21:46:32.739Z,4.93
2022-09-25T21:49:05.233Z,3.93
2022-09-25T21:51:41.910Z,6.63
2022-09-25T21:54:09.437Z,3.50
2022-09-25T21:56:42.527Z,6.47
2022-09-25T21:59:09.809Z,6.67
2022-09-25T22:01:39.350Z,4.97
2022-09-25T22:04:11.955Z,4.00
2022-09-25T22:06:41.467Z,4.40
2022-09-25T22:09:10.491Z,5.47
2022-09-25T22:11:38.642Z,6.03
2022-09-25T22:14:15.842Z,6.27
2022-09-25T22:16:44.571Z,6.47
2022-09-25T22:19:19.365Z,4.70
2022-09-25T22:21:47.117Z,3.73
2022-09-25T22:24:14.668Z,11.83
2022-09-25T22:26:45.862Z,7.73
2022-09-25T22:29:14.784Z,4.47
2022-09-25T22:31:43.764Z,4.30
2022-09-25T22:34:19.442Z,3.90
2022-09-25T22:36:45.914Z,5.10
2022-09-25T22:39:14.690Z,4.20
2022-09-25T22:41:53.199Z,3.47
2022-09-25T22:44:20.235Z,7.47
2022-09-25T22:46:49.190Z,4.00
2022-09-25T22:49:19.412Z,10.73
2022-09-25T22:51:49.331Z,3.40
2022-09-25T22:54:19.556Z,5.17
2022-09-25T22:56:49.186Z,5.13
2022-09-25T22:59:24.297Z,4.07
2022-09-25T23:01:54.663Z,4.40
2022-09-25T23:04:24.915Z,6.10
2022-09-25T23:06:53.921Z,4.50
2022-09-25T23:09:25.237Z,3.80
2022-09-25T23:11:54.354Z,3.10
2022-09-25T23:14:25.418Z,4.63
2022-09-25T23:16:53.329Z,4.10
2022-09-25T23:19:22.189Z,2.73
2022-09-25T23:21:52.474Z,2.90
2022-09-25T23:24:21.366Z,3.10
2022-09-25T23:26:55.147Z,3.33
2022-09-25T23:29:24.251Z,5.17
2022-09-25T23:31:53.810Z,3.97
2022-09-25T23:34:23.457Z,5.27
2022-09-25T23:36:53.468Z,4.37
2022-09-25T23:39:22.989Z,4.17
2022-09-25T23:41:52.808Z,5.47
2022-09-25T23:44:22.530Z,6.20
2022-09-25T23:46:52.448Z,3.60
2022-09-25T23:49:21.765Z,4.00
2022-09-25T23:51:53.263Z,3.73
2022-09-25T23:54:26.407Z,5.80
2022-09-25T23:56:56.064Z,3.43
2022-09-25T23:59:25.463Z,6.30
